Terminal Aerodrome Forecast
Issued by NWS Springfield, MO

Home | Current Version | Previous Version | Text Only | Print | Product List | Glossary On
Versions: 1 2 3 4 5 6 7 8 9 10 11 12 13 14
000
FTUS43 KSGF 180500
TAFSGF
TAF
KSGF 180520Z 1806/1906 VRB03KT P6SM SKC
     FM180900 00000KT 4SM BR FEW005 SCT250
     FM181100 00000KT 2SM BR BKN005 BKN250
      TEMPO 1811/1814 4SM BR SCT005
     FM181400 VRB03KT P6SM SCT015
     FM181600 21007KT P6SM FEW030
     FM190000 18008KT P6SM SKC=

USA.gov is the U.S. government's official web portal to all federal, state and local government web resources and services.